createdAt,value
2023-01-05T00:02:24.935Z,0.70
2023-01-05T00:07:26.801Z,1.10
2023-01-05T00:12:46.877Z,0.88
2023-01-05T00:18:07.117Z,0.85
2023-01-05T00:23:09.513Z,1.00
2023-01-05T00:28:11.234Z,1.00
2023-01-05T00:33:17.716Z,0.80
2023-01-05T00:38:19.362Z,1.00
2023-01-05T00:43:21.181Z,0.70
2023-01-05T00:48:23.035Z,0.82
2023-01-05T00:53:24.698Z,0.73
2023-01-05T00:58:26.360Z,0.73
2023-01-05T01:03:28.031Z,0.70
2023-01-05T01:08:30.103Z,0.93
2023-01-05T01:13:32.149Z,0.60
2023-01-05T01:18:34.023Z,0.85
2023-01-05T01:23:39.691Z,0.50
2023-01-05T01:28:41.359Z,1.10
2023-01-05T01:33:43.053Z,1.05
2023-01-05T01:38:44.718Z,0.50
2023-01-05T01:43:49.491Z,0.68
2023-01-05T01:49:01.311Z,0.90
2023-01-05T01:54:06.351Z,0.80
2023-01-05T01:59:08.828Z,0.80
2023-01-05T02:04:12.014Z,0.47
2023-01-05T02:09:13.758Z,0.98
2023-01-05T02:14:27.669Z,1.13
2023-01-05T02:19:53.878Z,0.75
2023-01-05T02:24:58.484Z,0.80
2023-01-05T02:30:15.359Z,0.77
2023-01-05T02:35:23.069Z,0.70
2023-01-05T02:40:33.186Z,0.77
2023-01-05T02:45:34.848Z,0.65
2023-01-05T02:51:08.638Z,1.10
2023-01-05T02:56:20.694Z,0.52
2023-01-05T03:01:36.163Z,0.80
2023-01-05T03:06:57.413Z,0.98
2023-01-05T03:12:29.274Z,1.70
2023-01-05T03:17:50.023Z,0.65
2023-01-05T03:23:12.055Z,1.08
2023-01-05T03:28:57.660Z,1.10
2023-01-05T03:34:36.347Z,0.65
2023-01-05T03:39:42.441Z,0.75
2023-01-05T03:44:46.199Z,1.15
2023-01-05T03:49:47.918Z,0.95
2023-01-05T03:54:49.873Z,1.00
2023-01-05T03:59:51.612Z,0.98
2023-01-05T04:04:53.285Z,1.33
2023-01-05T04:09:55.008Z,0.77
2023-01-05T04:14:56.652Z,1.17
2023-01-05T04:19:58.484Z,1.10
2023-01-05T04:25:00.222Z,0.55
2023-01-05T04:30:01.892Z,0.90
2023-01-05T04:35:10.586Z,0.68
2023-01-05T04:40:13.156Z,1.13
2023-01-05T04:45:14.844Z,0.85
2023-01-05T04:50:16.605Z,0.70
2023-01-05T04:55:18.398Z,1.30
2023-01-05T05:00:20.146Z,1.20
2023-01-05T05:05:21.896Z,0.80
2023-01-05T05:10:23.636Z,1.50
2023-01-05T05:15:25.277Z,1.08
2023-01-05T05:20:27.172Z,1.20
2023-01-05T05:25:28.961Z,1.00
2023-01-05T05:30:30.729Z,0.60
2023-01-05T05:35:32.373Z,0.88
2023-01-05T05:40:34.210Z,0.98
2023-01-05T05:45:36.208Z,0.90
2023-01-05T05:50:37.926Z,0.90
2023-01-05T05:55:39.784Z,0.77
2023-01-05T06:00:41.800Z,1.52
2023-01-05T06:05:44.796Z,1.08
2023-01-05T06:10:46.608Z,0.80
2023-01-05T06:15:48.540Z,0.63
2023-01-05T06:20:50.267Z,1.25
2023-01-05T06:25:51.921Z,1.58
2023-01-05T06:30:53.748Z,1.20
2023-01-05T06:35:55.389Z,1.20
2023-01-05T06:40:58.217Z,0.60
2023-01-05T06:45:59.906Z,0.88
2023-01-05T06:51:01.616Z,0.98
2023-01-05T06:56:03.345Z,0.88
2023-01-05T07:01:05.271Z,0.88
2023-01-05T07:06:12.861Z,1.15
2023-01-05T07:11:16.325Z,1.48
2023-01-05T07:16:18.454Z,1.05
2023-01-05T07:21:20.597Z,0.90
2023-01-05T07:26:22.263Z,0.98
2023-01-05T07:31:24.080Z,1.08
2023-01-05T07:36:25.965Z,2.33
2023-01-05T07:41:27.856Z,1.45
2023-01-05T07:46:29.502Z,1.05
2023-01-05T07:51:31.182Z,1.10
2023-01-05T07:56:32.940Z,1.38
2023-01-05T08:01:34.675Z,1.40
2023-01-05T08:06:36.649Z,3.03
2023-01-05T08:11:38.287Z,2.20
2023-01-05T08:16:40.233Z,1.73
2023-01-05T08:21:42.001Z,1.38
2023-01-05T08:26:43.871Z,2.20
2023-01-05T08:31:45.635Z,1.52
2023-01-05T08:36:47.498Z,1.73
2023-01-05T08:41:49.253Z,2.28
2023-01-05T08:46:51.250Z,1.67
2023-01-05T08:51:53.172Z,1.70
2023-01-05T08:56:54.902Z,1.98
2023-01-05T09:01:56.751Z,1.65
2023-01-05T09:06:58.744Z,2.17
2023-01-05T09:12:00.429Z,2.10
2023-01-05T09:17:09.791Z,2.40
2023-01-05T09:22:11.968Z,2.03
2023-01-05T09:27:13.738Z,2.53
2023-01-05T09:32:15.750Z,3.05
2023-01-05T09:37:17.751Z,2.50
2023-01-05T09:42:22.925Z,2.97
2023-01-05T09:47:35.101Z,3.70
2023-01-05T09:52:38.692Z,3.65
2023-01-05T09:57:41.243Z,3.72
2023-01-05T10:03:08.934Z,4.65
2023-01-05T10:08:32.644Z,3.85
2023-01-05T10:13:37.846Z,3.78
2023-01-05T10:18:39.843Z,3.30
2023-01-05T10:23:47.536Z,3.35
2023-01-05T10:29:22.305Z,4.05
2023-01-05T10:34:47.710Z,3.85
2023-01-05T10:39:58.563Z,3.78
2023-01-05T10:45:03.668Z,3.75
2023-01-05T10:50:20.622Z,4.30
2023-01-05T10:55:24.311Z,5.13
2023-01-05T11:00:42.160Z,2.78
2023-01-05T11:05:48.552Z,3.15
2023-01-05T11:10:53.285Z,2.92
2023-01-05T11:16:22.965Z,3.42
2023-01-05T11:21:44.539Z,3.58
2023-01-05T11:26:58.940Z,4.40
2023-01-05T11:32:06.288Z,2.75
2023-01-05T11:37:28.147Z,2.72
2023-01-05T11:42:31.889Z,2.78
2023-01-05T11:47:50.610Z,2.70
2023-01-05T11:53:02.819Z,2.83
2023-01-05T11:58:14.816Z,2.50
2023-01-05T12:03:58.636Z,3.60
2023-01-05T12:09:10.128Z,4.30
2023-01-05T12:14:26.909Z,4.07
2023-01-05T12:19:34.470Z,2.80
2023-01-05T12:24:38.981Z,3.17
2023-01-05T12:36:00.183Z,4.10
2023-01-05T12:41:20.756Z,3.40
2023-01-05T12:46:48.610Z,3.08
2023-01-05T12:52:12.870Z,2.42
2023-01-05T12:57:23.582Z,2.13
2023-01-05T13:02:33.463Z,1.60
2023-01-05T13:08:07.799Z,2.97
2023-01-05T13:13:21.001Z,2.65
2023-01-05T13:18:25.935Z,2.58
2023-01-05T13:23:31.298Z,1.90
2023-01-05T13:28:34.786Z,2.75
2023-01-05T13:34:32.104Z,2.17
2023-01-05T13:39:58.901Z,2.33
2023-01-05T13:45:20.032Z,2.08
2023-01-05T13:50:39.481Z,1.88
2023-01-05T13:55:48.354Z,1.95
2023-01-05T14:00:52.935Z,1.67
2023-01-05T14:05:57.838Z,2.08
2023-01-05T14:11:19.878Z,1.80
2023-01-05T14:16:33.497Z,1.88
2023-01-05T14:21:50.254Z,1.80
2023-01-05T14:27:00.778Z,1.60
2023-01-05T14:32:08.017Z,1.23
2023-01-05T14:37:22.812Z,1.95
2023-01-05T14:42:34.586Z,1.77
2023-01-05T14:47:46.253Z,1.88
2023-01-05T14:53:00.110Z,1.90
2023-01-05T14:58:14.403Z,1.75
2023-01-05T15:03:22.132Z,1.08
2023-01-05T15:08:51.618Z,1.60
2023-01-05T15:14:21.084Z,1.67
2023-01-05T15:19:31.970Z,1.42
2023-01-05T15:24:46.110Z,1.48
2023-01-05T15:30:12.647Z,0.85
2023-01-05T15:35:36.985Z,2.13
2023-01-05T15:40:38.722Z,1.25
2023-01-05T15:45:43.440Z,1.27
2023-01-05T15:50:47.987Z,0.90
2023-01-05T15:55:52.138Z,0.98
2023-01-05T16:01:15.263Z,1.10
2023-01-05T16:06:23.892Z,1.35
2023-01-05T16:11:31.779Z,1.02
2023-01-05T16:16:53.991Z,1.15
2023-01-05T16:22:08.276Z,1.17
2023-01-05T16:27:13.287Z,1.00
2023-01-05T16:32:32.012Z,1.30
2023-01-05T16:37:33.724Z,0.90
2023-01-05T16:42:45.807Z,1.23
2023-01-05T16:47:47.591Z,0.90
2023-01-05T16:53:16.189Z,0.90
2023-01-05T16:58:29.971Z,1.20
2023-01-05T17:03:32.676Z,1.00
2023-01-05T17:08:37.776Z,1.30
2023-01-05T17:13:47.864Z,1.70
2023-01-05T17:18:50.148Z,1.33
2023-01-05T17:23:54.883Z,1.40
2023-01-05T17:34:05.209Z,1.10
2023-01-05T17:39:07.001Z,1.42
2023-01-05T17:44:08.827Z,0.75
2023-01-05T17:49:19.464Z,0.75
2023-01-05T17:54:21.215Z,0.88
2023-01-05T17:59:22.939Z,0.60
2023-01-05T18:04:26.274Z,0.80
2023-01-05T18:09:29.337Z,0.90
2023-01-05T18:14:31.023Z,1.15
2023-01-05T18:19:33.678Z,0.73
2023-01-05T18:24:35.503Z,1.33
2023-01-05T18:29:38.055Z,0.85
2023-01-05T18:34:40.221Z,1.15
2023-01-05T18:39:43.478Z,0.75
2023-01-05T18:44:45.459Z,0.63
2023-01-05T18:49:47.187Z,1.00
2023-01-05T18:54:49.197Z,0.90
2023-01-05T18:59:51.896Z,0.80
2023-01-05T19:04:53.664Z,0.80
2023-01-05T19:09:55.506Z,0.63
2023-01-05T19:14:57.485Z,0.88
2023-01-05T19:19:59.438Z,1.10
2023-01-05T19:25:01.635Z,1.17
2023-01-05T19:30:03.481Z,0.55
2023-01-05T19:35:06.370Z,1.25
2023-01-05T19:40:09.989Z,0.75
2023-01-05T19:45:11.872Z,1.10
2023-01-05T19:50:14.807Z,1.00
2023-01-05T19:55:16.537Z,0.70
2023-01-05T20:00:18.327Z,0.65
2023-01-05T20:05:20.034Z,0.65
2023-01-05T20:10:22.566Z,1.05
2023-01-05T20:15:24.578Z,0.65
2023-01-05T20:20:26.283Z,0.60
2023-01-05T20:25:27.974Z,0.63
2023-01-05T20:30:29.678Z,0.85
2023-01-05T20:35:31.355Z,0.38
2023-01-05T20:40:33.076Z,0.63
2023-01-05T20:45:34.796Z,0.40
2023-01-05T20:50:36.737Z,0.40
2023-01-05T20:55:40.374Z,0.45
2023-01-05T21:01:10.505Z,0.40
2023-01-05T21:06:05.976Z,0.45
2023-01-05T21:11:15.976Z,0.30
2023-01-05T21:16:20.964Z,0.63
2023-01-05T21:21:24.569Z,0.90
2023-01-05T21:26:26.585Z,1.25
2023-01-05T21:31:28.338Z,0.55
2023-01-05T21:36:31.993Z,0.47
2023-01-05T21:41:53.107Z,0.60
2023-01-05T21:46:54.786Z,0.52
2023-01-05T21:52:14.985Z,0.77
2023-01-05T21:57:17.666Z,0.80
2023-01-05T22:02:19.487Z,0.65
2023-01-05T22:07:21.199Z,0.45
2023-01-05T22:12:22.874Z,0.80
2023-01-05T22:17:24.936Z,0.93
2023-01-05T22:22:26.677Z,0.60
2023-01-05T22:27:29.768Z,0.80
2023-01-05T22:32:31.513Z,0.80
2023-01-05T22:37:33.215Z,0.45
2023-01-05T22:42:35.141Z,1.33
2023-01-05T22:47:36.881Z,0.40
2023-01-05T22:52:38.520Z,0.30
2023-01-05T22:57:40.183Z,0.95
2023-01-05T23:02:42.039Z,0.60
2023-01-05T23:07:43.963Z,0.50
2023-01-05T23:12:45.685Z,0.50
2023-01-05T23:17:47.354Z,0.73
2023-01-05T23:22:48.992Z,0.60
2023-01-05T23:27:52.745Z,0.40
2023-01-05T23:32:54.700Z,0.50
2023-01-05T23:37:56.388Z,0.47
2023-01-05T23:42:58.033Z,0.30
2023-01-05T23:48:00.291Z,0.50
2023-01-05T23:53:03.903Z,0.30
2023-01-05T23:58:06.549Z,0.50
